Botruc 33 — WDC3314 — position and weather

sailwx.info

Track history (hours):
 
Tides and Currents Weather Stations Pressure Air Temp Water Temp Dewpoint Dewpoint Depression Visibility Wind Speed Wind Dir Waves Ship Positions

Botruc 33

Owner: L & M Botruc, Galliano, LA. More information available from US FCC via Universal Licensing System and Coast Guard Vessel Documentation Center.

Last reported at 2018-Jun-22 05:24 UTC. Time now 2018-Jun-25 11:22 UTC.
Position N 29°34' W 092°18'.

Length 10 m; draft 3 m.

Type: Cargo ship. MMSI: 367005670.

Date/timePositionNaut miles runAvg speedWind from/ knotsBaromVisibWave heightAir tempDewpointWater temp
2018-Jun-22 05:24N 29°34' W 092°18'3 6.8
2018-Jun-22 04:59N 29°37' W 092°17'3 6.2
2018-Jun-22 04:30N 29°40' W 092°15'3 6.6
2018-Jun-22 04:00N 29°43' W 092°15'3 6.6
2018-Jun-22 03:30N 29°45' W 092°12'3 6.4
2018-Jun-22 03:00N 29°47' W 092°09'1 1.3
2018-Jun-22 02:30N 29°48' W 092°09'0 0.0
2018-Jun-22 02:00N 29°48' W 092°09'0 0.0
2018-Jun-22 01:30N 29°48' W 092°09'0 0.0
2018-Jun-22 01:00N 29°48' W 092°09'0 0.0
2018-Jun-22 00:30N 29°48' W 092°09'0 0.0
2018-Jun-21 23:58N 29°48' W 092°09'0 0.0
2018-Jun-21 23:30N 29°48' W 092°09'2 4.2
2018-Jun-21 23:00N 29°47' W 092°11'1 1.1
2018-Jun-21 22:30N 29°47' W 092°10'0 0.2
2018-Jun-21 21:59N 29°47' W 092°10'0 0.0
2018-Jun-21 21:30N 29°47' W 092°10'0 0.0
2018-Jun-21 20:59N 29°47' W 092°10'0 0.0
2018-Jun-21 20:30N 29°47' W 092°10'0 0.0
2018-Jun-21 20:00N 29°47' W 092°10'0 0.0
2018-Jun-21 19:30N 29°47' W 092°10'2 3.2
2018-Jun-21 18:59N 29°48' W 092°09'0 0.0
2018-Jun-21 18:30N 29°48' W 092°09'0 0.0
2018-Jun-21 18:00N 29°48' W 092°09'1 3.0
2018-Jun-21 17:30N 29°47' W 092°10'4 7.8
2018-Jun-21 17:00N 29°44' W 092°14'4 7.8
2018-Jun-21 16:29N 29°41' W 092°15'  
2018-Jun-15 08:35N 29°34' W 092°18'0 6.6
2018-Jun-15 08:30N 29°34' W 092°18'3 6.0
2018-Jun-15 08:00N 29°37' W 092°17'3 5.3
2018-Jun-15 07:30N 29°40' W 092°15'3 5.7
2018-Jun-15 07:00N 29°42' W 092°15'3 5.7
2018-Jun-15 06:30N 29°45' W 092°13'3 5.9
2018-Jun-15 06:00N 29°47' W 092°10'2 3.5
2018-Jun-15 05:30N 29°48' W 092°09'1 1.2
2018-Jun-15 05:00N 29°47' W 092°09'1 1.8
2018-Jun-15 04:30N 29°47' W 092°10'1 2.7
2018-Jun-15 03:59N 29°48' W 092°09'0 0.0
2018-Jun-15 03:30N 29°48' W 092°09'0 0.0
2018-Jun-15 03:00N 29°48' W 092°09'0 0.0
2018-Jun-15 02:30N 29°48' W 092°09'0 0.0
2018-Jun-15 02:00N 29°48' W 092°09'2 4.2
2018-Jun-15 01:30N 29°47' W 092°11'0 0.8
2018-Jun-15 00:59N 29°47' W 092°11'0 0.0
2018-Jun-15 00:30N 29°47' W 092°11'0 0.1
2018-Jun-15 00:00N 29°47' W 092°11'1 1.7
2018-Jun-14 23:30N 29°47' W 092°10'0 0.0
2018-Jun-14 23:00N 29°47' W 092°10'0 0.0
2018-Jun-14 22:30N 29°47' W 092°10'0 0.0
2018-Jun-14 22:00N 29°47' W 092°10'0 0.0
2018-Jun-14 21:30N 29°47' W 092°10'0 0.0
2018-Jun-14 21:00N 29°47' W 092°10'0 0.0
2018-Jun-14 20:30N 29°47' W 092°10'0 0.0
2018-Jun-14 20:00N 29°47' W 092°10'1 1.7
2018-Jun-14 19:30N 29°47' W 092°09'2 3.7
2018-Jun-14 19:00N 29°48' W 092°08'3 5.6
2018-Jun-14 18:30N 29°51' W 092°07'2 4.1
2018-Jun-14 17:58N 29°53' W 092°07'0 0.9
2018-Jun-14 17:28N 29°54' W 092°07'0 0.0
2018-Jun-14 17:00N 29°54' W 092°07'1 1.5
2018-Jun-14 16:30N 29°53' W 092°08'1 2.9
2018-Jun-14 16:00N 29°52' W 092°08'2 3.1
2018-Jun-14 15:30N 29°50' W 092°08'2 3.7
2018-Jun-14 15:00N 29°48' W 092°08'1 1.8
2018-Jun-14 14:30N 29°48' W 092°09'0 0.0
2018-Jun-14 13:58N 29°48' W 092°09'0 0.2
2018-Jun-14 13:30N 29°48' W 092°09'3 5.7
2018-Jun-14 13:00N 29°46' W 092°11'4 7.0
2018-Jun-14 12:30N 29°44' W 092°15'3 6.9
2018-Jun-14 12:00N 29°40' W 092°15'3 6.6
2018-Jun-14 11:29N 29°37' W 092°17'  
Track history (hours):
 
Tides and Currents Weather Stations Pressure Air Temp Water Temp Dewpoint Dewpoint Depression Visibility Wind Speed Wind Dir Waves Ship Positions

Botruc 33

Owner: L & M Botruc, Galliano, LA. More information available from US FCC via Universal Licensing System and Coast Guard Vessel Documentation Center.

Last reported at 2018-Jun-22 05:24 UTC. Time now 2018-Jun-25 11:22 UTC.
Position N 29°34' W 092°18'.

Length 10 m; draft 3 m.

Type: Cargo ship. MMSI: 367005670.

Date/timePositionNaut miles runAvg speedWind from/ knotsBaromVisibWave heightAir tempDewpointWater temp
2018-Jun-22 05:24N 29°34' W 092°18'3 6.8
2018-Jun-22 04:59N 29°37' W 092°17'3 6.2
2018-Jun-22 04:30N 29°40' W 092°15'3 6.6
2018-Jun-22 04:00N 29°43' W 092°15'3 6.6
2018-Jun-22 03:30N 29°45' W 092°12'3 6.4
2018-Jun-22 03:00N 29°47' W 092°09'1 1.3
2018-Jun-22 02:30N 29°48' W 092°09'0 0.0
2018-Jun-22 02:00N 29°48' W 092°09'0 0.0
2018-Jun-22 01:30N 29°48' W 092°09'0 0.0
2018-Jun-22 01:00N 29°48' W 092°09'0 0.0
2018-Jun-22 00:30N 29°48' W 092°09'0 0.0
2018-Jun-21 23:58N 29°48' W 092°09'0 0.0
2018-Jun-21 23:30N 29°48' W 092°09'2 4.2
2018-Jun-21 23:00N 29°47' W 092°11'1 1.1
2018-Jun-21 22:30N 29°47' W 092°10'0 0.2
2018-Jun-21 21:59N 29°47' W 092°10'0 0.0
2018-Jun-21 21:30N 29°47' W 092°10'0 0.0
2018-Jun-21 20:59N 29°47' W 092°10'0 0.0
2018-Jun-21 20:30N 29°47' W 092°10'0 0.0
2018-Jun-21 20:00N 29°47' W 092°10'0 0.0
2018-Jun-21 19:30N 29°47' W 092°10'2 3.2
2018-Jun-21 18:59N 29°48' W 092°09'0 0.0
2018-Jun-21 18:30N 29°48' W 092°09'0 0.0
2018-Jun-21 18:00N 29°48' W 092°09'1 3.0
2018-Jun-21 17:30N 29°47' W 092°10'4 7.8
2018-Jun-21 17:00N 29°44' W 092°14'4 7.8
2018-Jun-21 16:29N 29°41' W 092°15'  
2018-Jun-15 08:35N 29°34' W 092°18'0 6.6
2018-Jun-15 08:30N 29°34' W 092°18'3 6.0
2018-Jun-15 08:00N 29°37' W 092°17'3 5.3
2018-Jun-15 07:30N 29°40' W 092°15'3 5.7
2018-Jun-15 07:00N 29°42' W 092°15'3 5.7
2018-Jun-15 06:30N 29°45' W 092°13'3 5.9
2018-Jun-15 06:00N 29°47' W 092°10'2 3.5
2018-Jun-15 05:30N 29°48' W 092°09'1 1.2
2018-Jun-15 05:00N 29°47' W 092°09'1 1.8
2018-Jun-15 04:30N 29°47' W 092°10'1 2.7
2018-Jun-15 03:59N 29°48' W 092°09'0 0.0
2018-Jun-15 03:30N 29°48' W 092°09'0 0.0
2018-Jun-15 03:00N 29°48' W 092°09'0 0.0
2018-Jun-15 02:30N 29°48' W 092°09'0 0.0
2018-Jun-15 02:00N 29°48' W 092°09'2 4.2
2018-Jun-15 01:30N 29°47' W 092°11'0 0.8
2018-Jun-15 00:59N 29°47' W 092°11'0 0.0
2018-Jun-15 00:30N 29°47' W 092°11'0 0.1
2018-Jun-15 00:00N 29°47' W 092°11'1 1.7
2018-Jun-14 23:30N 29°47' W 092°10'0 0.0
2018-Jun-14 23:00N 29°47' W 092°10'0 0.0
2018-Jun-14 22:30N 29°47' W 092°10'0 0.0
2018-Jun-14 22:00N 29°47' W 092°10'0 0.0
2018-Jun-14 21:30N 29°47' W 092°10'0 0.0
2018-Jun-14 21:00N 29°47' W 092°10'0 0.0
2018-Jun-14 20:30N 29°47' W 092°10'0 0.0
2018-Jun-14 20:00N 29°47' W 092°10'1 1.7
2018-Jun-14 19:30N 29°47' W 092°09'2 3.7
2018-Jun-14 19:00N 29°48' W 092°08'3 5.6
2018-Jun-14 18:30N 29°51' W 092°07'2 4.1
2018-Jun-14 17:58N 29°53' W 092°07'0 0.9
2018-Jun-14 17:28N 29°54' W 092°07'0 0.0
2018-Jun-14 17:00N 29°54' W 092°07'1 1.5
2018-Jun-14 16:30N 29°53' W 092°08'1 2.9
2018-Jun-14 16:00N 29°52' W 092°08'2 3.1
2018-Jun-14 15:30N 29°50' W 092°08'2 3.7
2018-Jun-14 15:00N 29°48' W 092°08'1 1.8
2018-Jun-14 14:30N 29°48' W 092°09'0 0.0
2018-Jun-14 13:58N 29°48' W 092°09'0 0.2
2018-Jun-14 13:30N 29°48' W 092°09'3 5.7
2018-Jun-14 13:00N 29°46' W 092°11'4 7.0
2018-Jun-14 12:30N 29°44' W 092°15'3 6.9
2018-Jun-14 12:00N 29°40' W 092°15'3 6.6
2018-Jun-14 11:29N 29°37' W 092°17'  

Dump ship's entire track history